Time;durP1;ratioP1;P1;durP2;ratioP2;P2;SDS_P1;SDS_P2;PMS_P1;PMS_P2;Temp;Humidity;BMP_temperature;BMP_pressure;BME280_temperature;BME280_humidity;BME280_pressure;Samples;Min_cycle;Max_cycle;Signal;HPM_P1;HPM_P2
2023/06/15 00:03:02;;;;;;;3.23;2.87;;;;;;;18.16;39.37;99805.16;10540705;28;20238;-66
2023/06/15 00:08:04;;;;;;;5.30;3.37;;;;;;;18.05;39.68;99819.50;10545453;28;20234;-67
2023/06/15 00:13:06;;;;;;;3.70;2.97;;;;;;;17.48;40.23;99825.34;10545618;27;20209;-66
2023/06/15 00:18:08;;;;;;;3.20;2.70;;;;;;;17.16;40.56;99822.84;10557812;28;20233;-66
2023/06/15 00:23:10;;;;;;;5.73;2.90;;;;;;;17.16;40.33;99829.06;10554091;27;20233;-67
2023/06/15 00:28:11;;;;;;;4.27;3.03;;;;;;;18.81;38.75;99789.81;10552359;28;20682;-68
2023/06/15 00:33:13;;;;;;;2.90;2.70;;;;;;;18.75;38.91;99818.72;10551163;28;20224;-66
2023/06/15 00:38:15;;;;;;;3.73;3.13;;;;;;;17.99;39.85;99845.63;10559483;28;20267;-66
2023/06/15 00:43:21;;;;;;;6.95;3.50;;;;;;;18.23;39.33;99853.78;10554710;28;20316;-66
2023/06/15 00:48:23;;;;;;;4.53;3.33;;;;;;;18.21;39.58;99836.97;10558898;28;20337;-65
2023/06/15 00:53:25;;;;;;;3.37;3.00;;;;;;;18.24;39.66;99840.03;10553911;28;20259;-64
2023/06/15 00:58:27;;;;;;;4.27;3.30;;;;;;;18.43;38.94;99848.88;10552748;27;20234;-65
2023/06/15 01:03:30;;;;;;;6.93;2.83;;;;;;;17.67;40.01;99872.97;10546580;28;20769;-66
2023/06/15 01:08:32;;;;;;;3.20;2.87;;;;;;;18.39;39.38;99850.44;10552468;28;20888;-65
2023/06/15 01:13:36;;;;;;;4.50;3.23;;;;;;;17.76;40.01;99868.03;10551660;28;20206;-66
2023/06/15 01:18:46;;;;;;;5.03;3.23;;;;;;;17.52;39.94;99870.63;10549182;28;20283;-66
2023/06/15 01:24:06;;;;;;;3.47;3.17;;;;;;;17.39;40.47;99875.41;10548700;28;20219;-64
2023/06/15 01:29:10;;;;;;;4.03;3.20;;;;;;;18.80;38.97;99842.41;10541747;28;20363;-66
2023/06/15 01:34:12;;;;;;;3.83;3.13;;;;;;;17.18;40.26;99878.34;10547586;28;20205;-65
2023/06/15 01:39:13;;;;;;;3.67;3.00;;;;;;;17.44;40.13;99880.94;10540982;28;20211;-66
2023/06/15 01:44:16;;;;;;;6.03;3.10;;;;;;;17.62;39.80;99878.22;10553429;28;20229;-67
2023/06/15 01:49:18;;;;;;;4.27;3.30;;;;;;;17.71;40.19;99855.22;10546429;28;20210;-66
2023/06/15 01:54:20;;;;;;;3.47;3.17;;;;;;;17.59;39.92;99867.84;10542628;28;20202;-66
2023/06/15 01:59:21;;;;;;;5.67;3.57;;;;;;;16.64;41.23;99863.72;10549517;27;20210;-66
2023/06/15 02:04:23;;;;;;;6.03;2.80;;;;;;;17.17;40.77;99874.00;10541682;28;20237;-65
2023/06/15 02:09:25;;;;;;;3.70;2.97;;;;;;;18.09;39.31;99869.44;10540322;28;20252;-66
2023/06/15 02:14:27;;;;;;;4.70;2.97;;;;;;;17.14;40.54;99892.53;10541398;28;20561;-65
2023/06/15 02:19:29;;;;;;;4.20;3.53;;;;;;;16.90;40.94;99884.22;10544988;28;20243;-66
2023/06/15 02:24:31;;;;;;;4.23;3.13;;;;;;;17.20;40.99;99890.81;10549081;28;20222;-65
2023/06/15 02:29:33;;;;;;;4.03;3.30;;;;;;;17.69;40.57;99862.72;10540796;28;21061;-64
2023/06/15 02:34:36;;;;;;;10.87;3.43;;;;;;;18.20;39.58;99889.47;10544722;28;20225;-65
2023/06/15 02:39:38;;;;;;;3.53;3.23;;;;;;;18.28;38.89;99913.50;10545851;27;21055;-65
2023/06/15 02:44:40;;;;;;;5.50;3.50;;;;;;;17.07;40.16;99921.53;10544325;28;20256;-65
2023/06/15 02:49:42;;;;;;;4.50;3.27;;;;;;;17.50;40.68;99905.22;10550328;27;20210;-65
2023/06/15 02:54:43;;;;;;;3.70;3.40;;;;;;;17.02;40.93;99918.66;10545553;28;20541;-65
2023/06/15 02:59:49;;;;;;;3.57;3.10;;;;;;;16.54;40.94;99902.03;10545574;28;20305;-66
2023/06/15 03:04:51;;;;;;;10.53;3.60;;;;;;;16.91;41.28;99912.09;10535740;28;20438;-65
2023/06/15 03:09:53;;;;;;;4.53;3.60;;;;;;;16.38;41.62;99903.44;10545722;28;20559;-66
2023/06/15 03:14:56;;;;;;;3.90;3.30;;;;;;;18.01;40.23;99880.59;10540658;28;20631;-65
2023/06/15 03:19:58;;;;;;;3.73;3.17;;;;;;;17.26;41.09;99901.56;10541682;28;20673;-66
2023/06/15 03:25:00;;;;;;;3.97;3.13;;;;;;;17.18;41.29;99909.97;10542394;28;20233;-66
2023/06/15 03:30:05;;;;;;;7.23;3.17;;;;;;;16.64;41.79;99930.44;10544735;28;20234;-66
2023/06/15 03:35:08;;;;;;;3.90;3.27;;;;;;;16.78;41.20;99923.84;10542123;28;20274;-66
2023/06/15 03:40:10;;;;;;;4.87;3.00;;;;;;;16.80;41.76;99932.56;10539998;28;20206;-65
2023/06/15 03:45:13;;;;;;;6.00;3.10;;;;;;;16.79;41.50;99934.44;10550430;28;20307;-65
2023/06/15 03:50:15;;;;;;;4.03;3.20;;;;;;;17.13;41.37;99928.75;10551699;27;20696;-65
2023/06/15 03:55:17;;;;;;;4.17;3.53;;;;;;;16.95;41.17;99948.47;10549702;28;20218;-66
2023/06/15 04:00:19;;;;;;;4.93;3.43;;;;;;;16.37;41.90;99971.16;10554740;28;20213;-66
2023/06/15 04:05:22;;;;;;;5.57;3.50;;;;;;;16.43;42.10;99964.88;10553950;27;20262;-66
2023/06/15 04:10:23;;;;;;;4.73;3.03;;;;;;;16.47;41.86;99976.09;10550493;28;20301;-65
2023/06/15 04:15:25;;;;;;;5.60;3.37;;;;;;;17.12;41.55;99954.13;10554258;28;20321;-64
2023/06/15 04:20:31;;;;;;;3.70;3.40;;;;;;;16.25;42.61;99977.22;10542501;28;20210;-66
2023/06/15 04:25:35;;;;;;;3.27;2.87;;;;;;;16.43;42.17;99991.88;10556321;28;20254;-65
2023/06/15 04:30:40;;;;;;;3.60;3.30;;;;;;;16.14;42.91;99994.09;10546705;28;20822;-65
2023/06/15 04:35:45;;;;;;;4.23;3.30;;;;;;;16.55;42.65;99995.56;10549027;28;20225;-65
2023/06/15 04:40:48;;;;;;;5.23;3.10;;;;;;;16.70;41.69;100019.56;10547677;28;20663;-65
2023/06/15 04:45:49;;;;;;;5.10;3.40;;;;;;;16.29;43.28;100011.94;10549501;28;20461;-66
2023/06/15 04:50:51;;;;;;;5.67;3.53;;;;;;;17.14;42.12;100022.31;10551514;28;20557;-66
2023/06/15 04:55:53;;;;;;;4.73;3.50;;;;;;;16.59;42.21;100039.16;10548281;28;20241;-66
2023/06/15 05:05:22;;;;;;;5.17;3.50;;;;;;;15.12;45.33;100037.78;10447687;28;20857;-64
2023/06/15 05:10:24;;;;;;;4.73;3.87;;;;;;;16.71;43.14;100034.69;10415110;28;20239;-64
2023/06/15 05:15:45;;;;;;;3.37;3.03;;;;;;;16.69;43.19;100042.19;10420973;28;20227;-66
2023/06/15 05:20:48;;;;;;;4.73;3.40;;;;;;;17.94;42.00;100017.94;10419381;28;20231;-65
2023/06/15 05:25:51;;;;;;;6.30;2.97;;;;;;;17.82;41.54;100034.13;10416622;28;20238;-66
2023/06/15 05:30:53;;;;;;;4.57;3.20;;;;;;;17.88;42.05;100031.34;10418988;28;20197;-66
2023/06/15 05:35:54;;;;;;;4.97;3.40;;;;;;;19.14;41.27;99989.03;10425092;28;20848;-69
2023/06/15 05:40:56;;;;;;;5.07;3.43;;;;;;;18.93;41.22;100020.28;10418818;28;20793;-67
2023/06/15 05:45:58;;;;;;;5.50;3.20;;;;;;;17.89;41.99;100043.81;10421465;28;20228;-65
2023/06/15 05:51:00;;;;;;;3.93;3.17;;;;;;;17.94;41.92;100051.25;10419232;28;20262;-69
2023/06/15 05:56:03;;;;;;;4.13;3.07;;;;;;;18.22;41.99;100049.84;10417025;28;20255;-65
2023/06/15 06:01:07;;;;;;;4.70;3.67;;;;;;;18.64;41.23;100029.06;10417754;28;20247;-68
2023/06/15 06:06:09;;;;;;;4.33;2.90;;;;;;;18.82;40.53;100033.56;10421058;28;20301;-66
2023/06/15 06:11:11;;;;;;;7.00;4.17;;;;;;;19.10;40.34;100031.28;10420456;28;20216;-68
2023/06/15 06:16:14;;;;;;;3.70;2.90;;;;;;;19.99;39.78;100003.88;10391772;28;20240;-65
2023/06/15 06:21:16;;;;;;;4.40;3.00;;;;;;;18.61;41.13;100061.22;10387002;28;20279;-66
2023/06/15 06:26:18;;;;;;;6.63;3.10;;;;;;;18.69;41.11;100033.75;10385890;28;20225;-65
2023/06/15 06:31:19;;;;;;;5.47;3.37;;;;;;;18.91;40.92;100038.63;10387532;28;20258;-65
2023/06/15 06:36:21;;;;;;;4.70;3.83;;;;;;;19.43;40.11;100018.97;10388932;28;20229;-69
2023/06/15 06:41:24;;;;;;;3.50;3.03;;;;;;;19.23;40.50;100024.78;10388398;28;20276;-64
2023/06/15 06:46:26;;;;;;;5.73;3.33;;;;;;;18.24;41.68;100072.13;10394523;28;20316;-66
2023/06/15 06:51:27;;;;;;;5.00;3.30;;;;;;;20.18;39.80;99987.44;10387723;28;20749;-65
2023/06/15 06:56:29;;;;;;;7.07;3.72;;;;;;;19.95;40.01;100027.16;10393218;28;20387;-66
2023/06/15 07:01:31;;;;;;;4.28;3.60;;;;;;;19.38;40.41;100049.53;10387645;28;20310;-66
2023/06/15 07:06:36;;;;;;;4.40;3.58;;;;;;;19.39;40.04;100041.16;10388923;28;20233;-65
2023/06/15 07:11:38;;;;;;;5.03;3.40;;;;;;;20.86;39.34;99988.31;10387993;28;20290;-64
2023/06/15 07:16:40;;;;;;;7.55;3.65;;;;;;;19.74;39.46;100058.50;10380922;28;20263;-66
2023/06/15 07:21:42;;;;;;;5.75;3.60;;;;;;;20.33;39.80;100022.16;10378487;28;20307;-64
2023/06/15 07:26:43;;;;;;;5.07;3.20;;;;;;;21.37;38.44;99970.03;10389646;28;20339;-66
2023/06/15 07:31:46;;;;;;;4.57;3.20;;;;;;;21.13;38.69;99990.34;10387002;28;20236;-66
2023/06/15 07:36:50;;;;;;;3.45;3.15;;;;;;;21.21;38.80;99968.16;10386389;28;20241;-66
2023/06/15 07:41:52;;;;;;;5.38;3.55;;;;;;;20.77;39.22;100006.13;10387619;28;20256;-66
2023/06/15 07:46:54;;;;;;;7.30;3.60;;;;;;;21.31;38.61;99962.03;10387882;28;20247;-66
2023/06/15 07:51:55;;;;;;;4.22;3.20;;;;;;;20.31;39.70;100020.53;10388831;28;20389;-66
2023/06/15 07:57:10;;;;;;;4.10;3.17;;;;;;;21.23;38.12;99976.88;10385664;28;20619;-65
2023/06/15 08:02:12;;;;;;;3.40;3.10;;;;;;;21.25;38.44;99977.44;10382722;28;20290;-66
2023/06/15 08:07:14;;;;;;;4.75;3.72;;;;;;;20.00;40.53;100042.72;10381142;28;20224;-66
2023/06/15 08:12:17;;;;;;;3.95;3.03;;;;;;;21.48;39.32;99962.00;10381344;28;20288;-65
2023/06/15 08:17:18;;;;;;;4.40;3.70;;;;;;;20.48;39.13;100027.88;10378126;28;20324;-66
2023/06/15 08:22:20;;;;;;;4.03;3.42;;;;;;;21.15;39.34;99982.75;10380434;28;20672;-67
2023/06/15 08:27:22;;;;;;;4.43;3.58;;;;;;;21.69;38.76;99941.25;10378904;28;20233;-66
2023/06/15 08:32:24;;;;;;;5.10;3.53;;;;;;;22.16;37.97;99936.03;10384931;28;20213;-68
2023/06/15 08:37:26;;;;;;;4.93;3.25;;;;;;;22.80;37.50;99901.66;10383427;28;20229;-65
2023/06/15 08:42:28;;;;;;;3.55;3.25;;;;;;;22.92;37.15;99917.81;10383779;28;20706;-66
2023/06/15 08:47:32;;;;;;;4.85;3.25;;;;;;;22.47;37.29;99925.41;10382061;28;20321;-66
2023/06/15 08:52:35;;;;;;;3.30;3.00;;;;;;;22.15;37.47;99942.59;10376008;28;20204;-65
2023/06/15 08:57:37;;;;;;;3.55;3.20;;;;;;;22.81;37.38;99918.88;10383620;28;20948;-65
2023/06/15 09:02:47;;;;;;;3.33;2.95;;;;;;;22.38;37.57;99916.06;10373099;28;20336;-66
2023/06/15 09:07:48;;;;;;;4.28;3.10;;;;;;;23.04;36.98;99918.44;10383970;28;20743;-65
2023/06/15 09:12:55;;;;;;;3.97;3.08;;;;;;;23.00;37.02;99920.06;10383654;28;20209;-66
2023/06/15 09:17:58;;;;;;;3.75;3.38;;;;;;;22.92;36.52;99930.66;10375782;28;20228;-65
2023/06/15 09:23:02;;;;;;;5.05;3.30;;;;;;;21.73;37.49;99973.19;10371990;28;20229;-64
2023/06/15 09:28:06;;;;;;;5.78;3.33;;;;;;;23.71;35.80;99872.31;10381629;28;20232;-65
2023/06/15 09:33:18;;;;;;;3.80;3.13;;;;;;;23.39;36.17;99892.41;10372859;28;20205;-65
2023/06/15 09:38:20;;;;;;;3.92;3.15;;;;;;;24.15;35.03;99865.53;10373649;28;20791;-66
2023/06/15 09:43:22;;;;;;;6.97;3.22;;;;;;;23.66;35.27;99901.53;10382747;28;20774;-67
2023/06/15 09:48:24;;;;;;;3.47;3.17;;;;;;;23.66;35.49;99905.06;10378259;28;20233;-66
2023/06/15 09:53:28;;;;;;;4.88;3.17;;;;;;;24.64;34.71;99864.09;10382951;28;20287;-65
2023/06/15 09:58:30;;;;;;;4.32;3.55;;;;;;;23.06;34.88;99940.88;10386975;28;20547;-64
2023/06/15 10:03:33;;;;;;;4.05;3.15;;;;;;;25.08;33.79;99850.56;10382909;28;20399;-65
2023/06/15 10:08:40;;;;;;;5.63;3.22;;;;;;;24.13;34.52;99871.25;10390589;28;20233;-66
2023/06/15 10:13:54;;;;;;;6.47;3.00;;;;;;;24.27;33.98;99895.34;10387968;28;20236;-66
2023/06/15 10:19:01;;;;;;;5.88;2.80;;;;;;;24.67;33.22;99872.56;10388949;28;20719;-66
2023/06/15 10:24:10;;;;;;;6.97;2.72;;;;;;;24.86;31.93;99866.53;10382452;28;20355;-67
2023/06/15 10:29:36;;;;;;;2.80;2.60;;;;;;;23.13;32.69;99945.25;10375514;28;20275;-67
2023/06/15 10:34:53;;;;;;;4.13;2.75;;;;;;;24.21;30.40;99878.13;10386215;28;20229;-66
2023/06/15 10:40:02;;;;;;;3.97;2.70;;;;;;;25.72;30.68;99837.09;10384269;28;20259;-67
2023/06/15 10:45:21;;;;;;;4.00;2.85;;;;;;;23.99;31.72;99913.88;10384583;28;20484;-65
2023/06/15 10:50:25;;;;;;;6.63;3.08;;;;;;;24.55;30.77;99877.53;10378862;28;20204;-67
2023/06/15 10:55:27;;;;;;;3.85;2.63;;;;;;;26.05;29.89;99820.13;10382672;28;20236;-65
2023/06/15 11:06:36;;;;;;;3.60;2.70;;;;;;;24.05;31.53;99871.78;10433227;28;20851;-66
2023/06/15 11:11:42;;;;;;;4.10;3.00;;;;;;;23.02;31.67;99936.16;10388811;28;20217;-66
2023/06/15 11:16:43;;;;;;;3.08;2.78;;;;;;;23.63;31.10;99900.16;10394947;28;20317;-65
2023/06/15 11:22:07;;;;;;;3.70;2.95;;;;;;;24.10;30.77;99868.25;10395414;28;20309;-65
2023/06/15 11:27:10;;;;;;;3.33;2.33;;;;;;;25.45;29.57;99840.28;10397474;28;20759;-66
2023/06/15 11:32:11;;;;;;;4.72;2.72;;;;;;;22.88;31.20;99928.44;10390507;28;20286;-66
2023/06/15 11:37:16;;;;;;;4.18;2.92;;;;;;;25.26;29.39;99810.00;10389872;28;20233;-68
2023/06/15 11:42:19;;;;;;;2.97;2.65;;;;;;;24.26;30.03;99888.22;10392170;28;20225;-66
2023/06/15 11:47:22;;;;;;;3.08;2.70;;;;;;;25.93;29.08;99787.59;10392206;28;20326;-67
2023/06/15 11:52:24;;;;;;;3.67;2.30;;;;;;;25.24;29.97;99845.06;10394308;28;20681;-66
2023/06/15 11:57:25;;;;;;;4.10;3.08;;;;;;;26.48;29.29;99784.63;10388317;28;20239;-65
2023/06/15 12:02:28;;;;;;;2.60;2.40;;;;;;;24.71;30.01;99862.75;10392676;28;20634;-64
2023/06/15 12:07:32;;;;;;;3.58;2.70;;;;;;;26.64;29.24;99771.53;10382268;28;20228;-65
2023/06/15 12:12:40;;;;;;;3.10;2.75;;;;;;;26.17;30.07;99795.88;10383460;28;20219;-66
2023/06/15 12:17:42;;;;;;;3.83;2.83;;;;;;;25.63;29.70;99827.84;10365868;28;21151;-68
2023/06/15 12:22:46;;;;;;;3.08;2.78;;;;;;;25.15;29.24;99852.19;10358778;28;20323;-66
2023/06/15 12:27:49;;;;;;;3.63;3.03;;;;;;;26.38;28.64;99804.75;10353659;28;20229;-68
2023/06/15 12:32:54;;;;;;;7.40;3.28;;;;;;;25.54;28.47;99840.50;10361601;28;20870;-66
2023/06/15 12:37:56;;;;;;;6.63;2.92;;;;;;;25.21;28.50;99829.19;10366340;28;20233;-68
2023/06/15 12:43:00;;;;;;;4.35;2.72;;;;;;;25.32;28.47;99828.03;10357926;28;20229;-65
2023/06/15 12:48:04;;;;;;;3.33;2.67;;;;;;;26.08;28.94;99775.69;10358162;28;20237;-66
2023/06/15 12:53:06;;;;;;;2.90;2.60;;;;;;;26.25;28.14;99802.69;10365836;28;20209;-67
2023/06/15 12:58:08;;;;;;;3.38;2.83;;;;;;;25.63;28.86;99823.16;10358817;28;20310;-66
2023/06/15 13:03:10;;;;;;;5.72;2.83;;;;;;;25.94;28.87;99786.50;10360250;28;20723;-66
2023/06/15 13:08:14;;;;;;;2.88;2.65;;;;;;;26.09;28.35;99775.38;10364792;28;20676;-65
2023/06/15 13:13:16;;;;;;;3.10;2.80;;;;;;;25.19;28.25;99834.09;10358749;28;20205;-67
2023/06/15 13:18:18;;;;;;;4.95;2.85;;;;;;;25.56;28.63;99802.69;10357297;28;20728;-67
2023/06/15 13:23:20;;;;;;;4.13;2.90;;;;;;;24.96;29.03;99844.59;10361425;28;20319;-66
2023/06/15 13:28:21;;;;;;;3.78;2.80;;;;;;;24.76;28.82;99809.09;10360255;28;20229;-66
2023/06/15 13:33:24;;;;;;;3.25;2.90;;;;;;;24.65;29.29;99825.53;10356556;28;20206;-65
2023/06/15 13:38:26;;;;;;;7.95;2.85;;;;;;;26.38;28.27;99730.69;10362295;28;20312;-64
2023/06/15 13:43:30;;;;;;;3.67;3.08;;;;;;;24.53;28.72;99836.78;10360842;28;20763;-65
2023/06/15 13:48:31;;;;;;;3.03;2.70;;;;;;;24.92;28.46;99821.63;10365018;28;20618;-68
2023/06/15 13:53:33;;;;;;;3.13;2.80;;;;;;;24.86;28.54;99818.09;10364644;28;20209;-64
2023/06/15 13:58:35;;;;;;;5.57;2.80;;;;;;;27.16;28.20;99720.34;10360073;28;20263;-65
2023/06/15 14:03:39;;;;;;;5.25;2.58;;;;;;;25.79;27.67;99782.81;10351485;28;20265;-66
2023/06/15 14:08:42;;;;;;;3.13;2.60;;;;;;;25.73;27.66;99816.81;10347725;28;20225;-65
2023/06/15 14:13:50;;;;;;;4.55;2.90;;;;;;;25.07;27.84;99818.81;10360603;28;20209;-66
2023/06/15 14:18:52;;;;;;;3.67;2.95;;;;;;;26.37;27.35;99762.78;10361994;28;20225;-66
2023/06/15 14:23:57;;;;;;;2.95;2.65;;;;;;;27.36;26.29;99757.66;10353864;28;20535;-66
2023/06/15 14:28:59;;;;;;;3.30;2.67;;;;;;;27.43;26.81;99746.31;10357211;28;20982;-65
2023/06/15 14:34:00;;;;;;;4.28;3.15;;;;;;;26.46;27.24;99792.31;10361631;28;20206;-66
2023/06/15 14:39:02;;;;;;;3.15;2.78;;;;;;;28.09;26.16;99730.63;10354400;28;20283;-67
2023/06/15 14:44:08;;;;;;;3.83;2.88;;;;;;;26.97;26.77;99785.41;10361776;28;20226;-69
2023/06/15 14:49:12;;;;;;;3.10;2.63;;;;;;;26.92;26.57;99786.28;10360298;28;20244;-68
2023/06/15 14:54:13;;;;;;;2.72;2.53;;;;;;;27.28;26.67;99774.84;10353278;28;20240;-69
2023/06/15 14:59:15;;;;;;;2.70;2.40;;;;;;;27.04;26.11;99785.84;10347899;28;20339;-69
2023/06/15 15:04:20;;;;;;;3.00;2.70;;;;;;;26.96;26.36;99803.81;10353831;28;20240;-68
2023/06/15 15:09:22;;;;;;;4.25;2.80;;;;;;;27.57;26.18;99762.84;10360150;28;20214;-69
2023/06/15 15:14:24;;;;;;;3.05;2.72;;;;;;;26.07;26.58;99816.00;10356912;28;20583;-68
2023/06/15 15:19:25;;;;;;;3.42;2.25;;;;;;;26.16;26.78;99796.97;10355734;28;20287;-68
2023/06/15 15:24:27;;;;;;;3.10;2.78;;;;;;;26.60;26.69;99762.25;10362253;28;20231;-70
2023/06/15 15:29:29;;;;;;;3.35;2.63;;;;;;;25.86;26.74;99787.97;10362373;28;20201;-70
2023/06/15 15:34:30;;;;;;;3.58;2.40;;;;;;;27.69;26.32;99721.97;10349490;28;20214;-69
2023/06/15 15:39:32;;;;;;;3.90;2.78;;;;;;;26.39;26.63;99803.63;10355188;28;20212;-73
2023/06/15 15:44:34;;;;;;;4.43;2.72;;;;;;;27.06;26.39;99778.97;10360682;28;20284;-70
2023/06/15 15:49:36;;;;;;;3.78;2.65;;;;;;;27.67;25.82;99747.00;10358394;28;20205;-69
2023/06/15 15:54:38;;;;;;;3.08;2.47;;;;;;;27.49;25.96;99758.84;10358948;28;20213;-65
2023/06/15 15:59:39;;;;;;;2.78;2.50;;;;;;;26.83;25.63;99796.31;10367771;28;20267;-65
2023/06/15 16:04:41;;;;;;;2.90;2.30;;;;;;;28.49;23.90;99719.97;10367415;28;20253;-65
2023/06/15 16:09:43;;;;;;;3.53;2.50;;;;;;;27.38;26.09;99782.94;10368140;28;20204;-66
2023/06/15 16:14:44;;;;;;;5.82;2.47;;;;;;;27.59;27.15;99739.44;10364405;28;20232;-67
2023/06/15 16:19:46;;;;;;;3.03;2.72;;;;;;;28.01;26.61;99720.31;10365158;28;20311;-66
2023/06/15 16:24:48;;;;;;;2.72;2.50;;;;;;;26.87;27.21;99767.97;10365188;28;20280;-66
2023/06/15 16:29:50;;;;;;;4.07;2.85;;;;;;;26.75;27.66;99753.84;10365443;28;20597;-67
2023/06/15 16:34:53;;;;;;;3.83;2.78;;;;;;;26.64;27.59;99783.31;10362519;28;20233;-66
2023/06/15 16:39:57;;;;;;;3.17;2.60;;;;;;;26.41;27.31;99793.19;10364367;28;20475;-67
2023/06/15 16:45:01;;;;;;;3.80;2.50;;;;;;;27.48;27.30;99759.94;10366999;28;20237;-67
2023/06/15 16:50:04;;;;;;;5.40;2.88;;;;;;;26.84;27.66;99782.28;10360202;28;20280;-67
2023/06/15 16:55:07;;;;;;;2.83;2.45;;;;;;;26.69;27.49;99782.47;10357058;28;20566;-65
2023/06/15 17:00:09;;;;;;;3.03;2.65;;;;;;;27.25;27.71;99778.19;10362372;28;20746;-66
2023/06/15 17:05:11;;;;;;;4.13;2.75;;;;;;;26.78;27.61;99793.63;10365846;28;20472;-66
2023/06/15 17:10:12;;;;;;;2.85;2.42;;;;;;;27.49;27.34;99769.84;10365843;28;20306;-68
2023/06/15 17:15:14;;;;;;;3.03;2.72;;;;;;;27.02;27.36;99788.09;10360701;28;20233;-67
2023/06/15 17:20:16;;;;;;;2.67;2.47;;;;;;;27.42;27.06;99772.97;10359147;28;20221;-67
2023/06/15 17:25:18;;;;;;;5.90;2.90;;;;;;;26.82;27.82;99792.72;10357105;28;20261;-66
2023/06/15 17:30:20;;;;;;;5.43;2.30;;;;;;;27.02;27.82;99780.66;10356932;28;20623;-67
2023/06/15 17:35:22;;;;;;;2.60;2.40;;;;;;;26.23;28.17;99811.19;10369231;28;20221;-67
2023/06/15 17:40:28;;;;;;;3.80;2.70;;;;;;;25.75;28.64;99806.38;10364597;28;20217;-66
2023/06/15 17:45:30;;;;;;;2.78;2.50;;;;;;;25.65;28.81;99820.16;10361986;28;20255;-67
2023/06/15 17:50:32;;;;;;;3.50;2.80;;;;;;;25.77;29.19;99806.91;10361648;28;20210;-66
2023/06/15 17:55:33;;;;;;;4.18;2.65;;;;;;;26.54;28.68;99773.28;10358017;28;20798;-66
2023/06/15 18:00:35;;;;;;;3.10;2.80;;;;;;;25.89;28.95;99819.44;10364390;28;20224;-66
2023/06/15 18:05:40;;;;;;;4.57;2.90;;;;;;;26.45;28.58;99804.38;10355047;28;20253;-66
2023/06/15 18:10:41;;;;;;;3.63;2.58;;;;;;;26.14;28.61;99815.66;10357801;28;20659;-66
2023/06/15 18:15:43;;;;;;;3.22;2.88;;;;;;;25.37;29.19;99822.53;10358425;28;20271;-67
2023/06/15 18:20:45;;;;;;;3.03;2.65;;;;;;;25.54;29.15;99807.63;10362474;28;20268;-67
2023/06/15 18:25:47;;;;;;;4.43;2.75;;;;;;;27.29;28.34;99776.47;10358941;28;20271;-67
2023/06/15 18:30:48;;;;;;;4.63;2.78;;;;;;;24.43;29.33;99845.00;10359936;28;20213;-66
2023/06/15 18:35:50;;;;;;;3.60;2.28;;;;;;;25.34;28.60;99841.44;10357928;28;20249;-66
2023/06/15 18:40:52;;;;;;;3.10;2.47;;;;;;;25.92;28.15;99827.09;10357257;28;20213;-67
2023/06/15 18:45:53;;;;;;;4.38;2.30;;;;;;;26.33;27.52;99818.50;10355315;28;20732;-66
2023/06/15 18:50:56;;;;;;;3.58;2.53;;;;;;;26.26;27.44;99823.53;10360203;28;20304;-66
2023/06/15 18:55:58;;;;;;;4.93;2.72;;;;;;;27.06;27.48;99808.34;10362193;28;20776;-67
2023/06/15 19:01:00;;;;;;;3.47;2.50;;;;;;;26.02;27.63;99851.69;10350199;28;20308;-67
2023/06/15 19:06:02;;;;;;;3.78;2.40;;;;;;;25.63;28.19;99847.00;10346996;28;20241;-67
2023/06/15 19:11:03;;;;;;;7.82;2.55;;;;;;;26.35;28.13;99824.50;10347947;28;20213;-67
2023/06/15 19:16:05;;;;;;;3.80;2.47;;;;;;;25.98;28.27;99847.88;10347608;28;20882;-67
2023/06/15 19:21:07;;;;;;;5.35;2.67;;;;;;;26.17;27.75;99847.97;10351253;28;20295;-67
2023/06/15 19:26:13;;;;;;;2.50;2.30;;;;;;;25.93;28.16;99854.22;10354066;28;20229;-67
2023/06/15 19:31:14;;;;;;;7.70;2.65;;;;;;;26.39;27.85;99834.63;10358103;28;20740;-67
2023/06/15 19:36:16;;;;;;;4.95;2.63;;;;;;;25.25;28.60;99874.91;10357010;28;20240;-67
2023/06/15 19:41:18;;;;;;;5.68;3.05;;;;;;;25.36;28.98;99863.91;10357200;28;20333;-65
2023/06/15 19:46:20;;;;;;;4.22;2.50;;;;;;;24.97;28.93;99878.25;10361753;28;20237;-67
2023/06/15 19:51:22;;;;;;;4.72;2.58;;;;;;;23.26;29.99;99881.97;10360351;28;20217;-67
2023/06/15 19:56:24;;;;;;;3.05;2.40;;;;;;;24.61;29.59;99865.47;10357453;28;20253;-67
2023/06/15 20:01:26;;;;;;;6.65;2.97;;;;;;;24.18;29.67;99892.34;10355063;28;20257;-67
2023/06/15 20:06:28;;;;;;;4.20;2.75;;;;;;;23.54;31.01;99883.44;10356018;28;20237;-65
2023/06/15 20:11:30;;;;;;;5.88;2.58;;;;;;;22.69;31.37;99883.63;10356902;28;20758;-66
2023/06/15 20:16:33;;;;;;;6.25;2.88;;;;;;;23.69;30.83;99879.97;10356825;28;20497;-66
2023/06/15 20:21:35;;;;;;;3.63;2.97;;;;;;;22.75;31.54;99884.44;10355104;28;20213;-67
2023/06/15 20:26:37;;;;;;;4.00;2.72;;;;;;;22.74;31.43;99900.00;10353324;28;20255;-66
2023/06/15 20:31:38;;;;;;;3.30;2.78;;;;;;;22.80;31.85;99890.75;10356018;28;20610;-65
2023/06/15 20:36:44;;;;;;;4.15;3.33;;;;;;;22.13;32.37;99892.16;10354195;28;20661;-68
2023/06/15 20:41:46;;;;;;;4.75;3.08;;;;;;;22.25;32.61;99884.63;10355061;28;20299;-65
2023/06/15 20:46:47;;;;;;;4.43;2.97;;;;;;;22.34;32.91;99884.97;10355004;28;20311;-66
2023/06/15 20:51:49;;;;;;;3.95;2.92;;;;;;;21.53;32.95;99889.38;10354539;28;20770;-66
2023/06/15 20:56:51;;;;;;;3.67;2.92;;;;;;;20.87;33.65;99892.06;10351207;28;20228;-68
2023/06/15 21:01:53;;;;;;;3.65;3.00;;;;;;;20.85;33.65;99896.91;10352988;28;20283;-65
2023/06/15 21:06:55;;;;;;;5.70;2.80;;;;;;;21.56;33.16;99896.19;10355218;28;20229;-65
2023/06/15 21:11:57;;;;;;;4.53;2.92;;;;;;;21.45;33.45;99927.09;10354034;28;20205;-66
2023/06/15 21:16:59;;;;;;;3.92;2.85;;;;;;;21.77;33.49;99908.94;10351452;28;20576;-66
2023/06/15 21:22:03;;;;;;;5.20;3.05;;;;;;;21.37;33.89;99896.56;10351857;28;20209;-68
2023/06/15 21:27:05;;;;;;;3.67;2.95;;;;;;;21.18;33.60;99908.78;10350108;28;20661;-65
2023/06/15 21:32:07;;;;;;;4.30;3.00;;;;;;;21.64;33.33;99894.91;10351867;28;20212;-67
2023/06/15 21:37:09;;;;;;;4.63;3.17;;;;;;;22.94;31.92;99884.81;10353700;28;20233;-68
2023/06/15 21:42:11;;;;;;;3.63;2.97;;;;;;;23.45;31.32;99907.72;10352591;28;20216;-68
2023/06/15 21:47:12;;;;;;;6.90;2.80;;;;;;;23.05;31.37;99931.00;10356301;28;20664;-67
2023/06/15 21:52:16;;;;;;;3.35;2.75;;;;;;;22.35;32.04;99968.38;10352684;28;20210;-68
2023/06/15 21:57:18;;;;;;;7.65;3.30;;;;;;;21.79;32.96;99934.00;10356838;28;20282;-67
2023/06/15 22:02:19;;;;;;;3.90;3.25;;;;;;;20.47;34.83;99931.13;10352742;28;20280;-67
2023/06/15 22:07:21;;;;;;;4.18;2.85;;;;;;;21.09;33.85;99927.44;10352110;28;20304;-68
2023/06/15 22:12:23;;;;;;;4.97;3.63;;;;;;;21.29;33.91;99917.88;10352938;28;20225;-68
2023/06/15 22:17:28;;;;;;;6.72;3.30;;;;;;;20.83;34.00;99931.69;10351127;28;20396;-67
2023/06/15 22:22:30;;;;;;;3.78;3.10;;;;;;;20.79;34.49;99925.13;10350976;28;20586;-66
2023/06/15 22:27:32;;;;;;;4.50;3.33;;;;;;;20.58;34.35;99926.66;10349393;28;20229;-67
2023/06/15 22:32:33;;;;;;;6.80;3.40;;;;;;;19.99;35.22;99921.56;10351102;28;20685;-67
2023/06/15 22:37:37;;;;;;;4.38;3.05;;;;;;;20.36;34.93;99915.72;10347376;28;20867;-66
2023/06/15 22:42:38;;;;;;;5.00;3.10;;;;;;;20.16;35.50;99908.00;10351773;28;20221;-65
2023/06/15 22:47:40;;;;;;;3.78;3.25;;;;;;;19.66;35.75;99899.53;10367796;28;20237;-66
2023/06/15 22:52:42;;;;;;;4.55;3.13;;;;;;;19.96;35.69;99906.59;10348641;28;20526;-67
2023/06/15 22:57:44;;;;;;;4.07;3.42;;;;;;;19.57;35.78;99904.53;10350285;28;20245;-66
2023/06/15 23:02:45;;;;;;;7.07;3.63;;;;;;;19.82;35.75;99897.91;10350323;28;20255;-67
2023/06/15 23:07:48;;;;;;;3.58;3.25;;;;;;;19.82;35.74;99908.78;10350004;28;20240;-68
2023/06/15 23:12:50;;;;;;;4.68;3.80;;;;;;;19.18;36.67;99898.84;10349791;28;20228;-67
2023/06/15 23:17:52;;;;;;;5.53;3.17;;;;;;;18.71;37.11;99898.00;10350538;28;20253;-67
2023/06/15 23:22:58;;;;;;;5.15;3.70;;;;;;;18.56;37.41;99882.25;10349763;28;20218;-67
2023/06/15 23:28:01;;;;;;;3.95;3.55;;;;;;;19.53;36.56;99878.88;10347980;28;20393;-65
2023/06/15 23:33:04;;;;;;;3.33;3.03;;;;;;;19.04;36.78;99885.78;10350844;28;20232;-67
2023/06/15 23:38:06;;;;;;;7.30;3.72;;;;;;;19.30;36.43;99898.81;10349847;28;20294;-66